sensor_id;sensor_type;location;lat;lon;timestamp;P1;durP1;ratioP1;P2;durP2;ratioP2
16063;SDS011;8136;53.172;8.256;2023-04-25T00:01:45;12.40;;;3.83;;
16063;SDS011;8136;53.172;8.256;2023-04-25T00:04:12;14.03;;;4.00;;
16063;SDS011;8136;53.172;8.256;2023-04-25T00:06:39;18.27;;;3.73;;
16063;SDS011;8136;53.172;8.256;2023-04-25T00:09:06;13.53;;;4.07;;
16063;SDS011;8136;53.172;8.256;2023-04-25T00:11:35;17.53;;;4.30;;
16063;SDS011;8136;53.172;8.256;2023-04-25T00:14:02;15.30;;;3.70;;
16063;SDS011;8136;53.172;8.256;2023-04-25T00:16:29;18.73;;;4.53;;
16063;SDS011;8136;53.172;8.256;2023-04-25T00:18:58;15.27;;;4.13;;
16063;SDS011;8136;53.172;8.256;2023-04-25T00:21:26;19.47;;;4.00;;
16063;SDS011;8136;53.172;8.256;2023-04-25T00:23:53;16.37;;;3.80;;
16063;SDS011;8136;53.172;8.256;2023-04-25T00:26:20;17.33;;;4.10;;
16063;SDS011;8136;53.172;8.256;2023-04-25T00:28:48;13.13;;;3.53;;
16063;SDS011;8136;53.172;8.256;2023-04-25T00:31:15;14.83;;;3.90;;
16063;SDS011;8136;53.172;8.256;2023-04-25T00:33:42;15.87;;;4.43;;
16063;SDS011;8136;53.172;8.256;2023-04-25T00:36:08;19.17;;;4.33;;
16063;SDS011;8136;53.172;8.256;2023-04-25T00:38:36;11.57;;;3.60;;
16063;SDS011;8136;53.172;8.256;2023-04-25T00:41:04;18.07;;;4.13;;
16063;SDS011;8136;53.172;8.256;2023-04-25T00:43:31;21.27;;;3.63;;
16063;SDS011;8136;53.172;8.256;2023-04-25T00:46:00;21.43;;;3.67;;
16063;SDS011;8136;53.172;8.256;2023-04-25T00:48:27;10.87;;;3.47;;
16063;SDS011;8136;53.172;8.256;2023-04-25T00:50:55;14.17;;;3.53;;
16063;SDS011;8136;53.172;8.256;2023-04-25T00:53:23;13.57;;;4.20;;
16063;SDS011;8136;53.172;8.256;2023-04-25T00:55:52;15.83;;;3.87;;
16063;SDS011;8136;53.172;8.256;2023-04-25T00:58:19;14.87;;;3.33;;
16063;SDS011;8136;53.172;8.256;2023-04-25T01:00:47;16.07;;;4.27;;
16063;SDS011;8136;53.172;8.256;2023-04-25T01:03:17;16.63;;;3.73;;
16063;SDS011;8136;53.172;8.256;2023-04-25T01:05:45;13.67;;;3.73;;
16063;SDS011;8136;53.172;8.256;2023-04-25T01:08:13;16.57;;;3.87;;
16063;SDS011;8136;53.172;8.256;2023-04-25T01:10:40;18.07;;;4.20;;
16063;SDS011;8136;53.172;8.256;2023-04-25T01:13:07;13.03;;;3.70;;
16063;SDS011;8136;53.172;8.256;2023-04-25T01:15:34;20.53;;;4.27;;
16063;SDS011;8136;53.172;8.256;2023-04-25T01:18:01;15.23;;;4.87;;
16063;SDS011;8136;53.172;8.256;2023-04-25T01:20:30;14.97;;;3.83;;
16063;SDS011;8136;53.172;8.256;2023-04-25T01:23:00;12.93;;;3.67;;
16063;SDS011;8136;53.172;8.256;2023-04-25T01:25:28;10.10;;;3.47;;
16063;SDS011;8136;53.172;8.256;2023-04-25T01:27:55;18.23;;;3.87;;
16063;SDS011;8136;53.172;8.256;2023-04-25T01:30:22;15.40;;;4.10;;
16063;SDS011;8136;53.172;8.256;2023-04-25T01:32:50;14.80;;;4.13;;
16063;SDS011;8136;53.172;8.256;2023-04-25T01:35:18;14.40;;;3.63;;
16063;SDS011;8136;53.172;8.256;2023-04-25T01:37:45;20.40;;;4.23;;
16063;SDS011;8136;53.172;8.256;2023-04-25T01:40:13;15.00;;;3.40;;
16063;SDS011;8136;53.172;8.256;2023-04-25T01:42:41;11.27;;;3.13;;
16063;SDS011;8136;53.172;8.256;2023-04-25T01:45:09;13.03;;;3.93;;
16063;SDS011;8136;53.172;8.256;2023-04-25T01:47:37;16.30;;;4.23;;
16063;SDS011;8136;53.172;8.256;2023-04-25T01:50:05;14.50;;;3.90;;
16063;SDS011;8136;53.172;8.256;2023-04-25T01:52:33;13.97;;;3.33;;
16063;SDS011;8136;53.172;8.256;2023-04-25T01:55:00;14.20;;;3.13;;
16063;SDS011;8136;53.172;8.256;2023-04-25T01:57:29;12.23;;;3.23;;
16063;SDS011;8136;53.172;8.256;2023-04-25T01:59:57;11.57;;;3.47;;
16063;SDS011;8136;53.172;8.256;2023-04-25T02:02:26;21.50;;;4.87;;
16063;SDS011;8136;53.172;8.256;2023-04-25T02:04:53;11.93;;;3.47;;
16063;SDS011;8136;53.172;8.256;2023-04-25T02:07:21;12.60;;;3.00;;
16063;SDS011;8136;53.172;8.256;2023-04-25T02:09:47;17.43;;;3.80;;
16063;SDS011;8136;53.172;8.256;2023-04-25T02:12:14;17.87;;;3.80;;
16063;SDS011;8136;53.172;8.256;2023-04-25T02:14:43;15.33;;;3.87;;
16063;SDS011;8136;53.172;8.256;2023-04-25T02:17:10;13.40;;;3.27;;
16063;SDS011;8136;53.172;8.256;2023-04-25T02:19:37;13.27;;;4.00;;
16063;SDS011;8136;53.172;8.256;2023-04-25T02:22:04;16.27;;;3.77;;
16063;SDS011;8136;53.172;8.256;2023-04-25T02:24:31;21.13;;;4.77;;
16063;SDS011;8136;53.172;8.256;2023-04-25T02:26:58;16.03;;;3.67;;
16063;SDS011;8136;53.172;8.256;2023-04-25T02:29:25;12.77;;;2.90;;
16063;SDS011;8136;53.172;8.256;2023-04-25T02:31:53;18.00;;;3.93;;
16063;SDS011;8136;53.172;8.256;2023-04-25T02:34:20;9.97;;;3.70;;
16063;SDS011;8136;53.172;8.256;2023-04-25T02:36:47;11.53;;;3.00;;
16063;SDS011;8136;53.172;8.256;2023-04-25T02:39:15;10.63;;;3.73;;
16063;SDS011;8136;53.172;8.256;2023-04-25T02:41:42;12.47;;;3.10;;
16063;SDS011;8136;53.172;8.256;2023-04-25T02:44:09;10.30;;;3.50;;
16063;SDS011;8136;53.172;8.256;2023-04-25T02:46:36;11.60;;;3.43;;
16063;SDS011;8136;53.172;8.256;2023-04-25T02:49:04;16.73;;;3.47;;
16063;SDS011;8136;53.172;8.256;2023-04-25T02:51:31;10.67;;;2.90;;
16063;SDS011;8136;53.172;8.256;2023-04-25T02:53:58;15.43;;;3.43;;
16063;SDS011;8136;53.172;8.256;2023-04-25T02:56:25;12.13;;;3.37;;
16063;SDS011;8136;53.172;8.256;2023-04-25T02:58:52;12.33;;;3.30;;
16063;SDS011;8136;53.172;8.256;2023-04-25T03:01:19;15.00;;;3.23;;
16063;SDS011;8136;53.172;8.256;2023-04-25T03:03:46;12.43;;;2.87;;
16063;SDS011;8136;53.172;8.256;2023-04-25T03:06:14;10.63;;;3.67;;
16063;SDS011;8136;53.172;8.256;2023-04-25T03:08:40;16.03;;;3.33;;
16063;SDS011;8136;53.172;8.256;2023-04-25T03:11:07;11.77;;;3.30;;
16063;SDS011;8136;53.172;8.256;2023-04-25T03:13:34;11.37;;;2.80;;
16063;SDS011;8136;53.172;8.256;2023-04-25T03:16:01;10.43;;;3.00;;
16063;SDS011;8136;53.172;8.256;2023-04-25T03:18:28;12.50;;;2.40;;
16063;SDS011;8136;53.172;8.256;2023-04-25T03:20:55;12.10;;;2.90;;
16063;SDS011;8136;53.172;8.256;2023-04-25T03:23:23;11.57;;;3.37;;
16063;SDS011;8136;53.172;8.256;2023-04-25T03:25:51;9.97;;;2.80;;
16063;SDS011;8136;53.172;8.256;2023-04-25T03:28:17;11.53;;;2.77;;
16063;SDS011;8136;53.172;8.256;2023-04-25T03:30:44;9.17;;;3.17;;
16063;SDS011;8136;53.172;8.256;2023-04-25T03:33:11;11.93;;;2.60;;
16063;SDS011;8136;53.172;8.256;2023-04-25T03:35:38;14.30;;;3.00;;
16063;SDS011;8136;53.172;8.256;2023-04-25T03:38:05;7.97;;;3.03;;
16063;SDS011;8136;53.172;8.256;2023-04-25T03:40:33;10.50;;;2.97;;
16063;SDS011;8136;53.172;8.256;2023-04-25T03:43:00;10.57;;;3.03;;
16063;SDS011;8136;53.172;8.256;2023-04-25T03:45:27;12.20;;;2.83;;
16063;SDS011;8136;53.172;8.256;2023-04-25T03:47:53;7.37;;;2.70;;
16063;SDS011;8136;53.172;8.256;2023-04-25T03:50:20;12.83;;;3.00;;
16063;SDS011;8136;53.172;8.256;2023-04-25T03:52:47;8.23;;;2.93;;
16063;SDS011;8136;53.172;8.256;2023-04-25T03:55:13;11.20;;;3.00;;
16063;SDS011;8136;53.172;8.256;2023-04-25T03:57:42;7.17;;;2.77;;
16063;SDS011;8136;53.172;8.256;2023-04-25T04:00:10;5.20;;;2.13;;
16063;SDS011;8136;53.172;8.256;2023-04-25T04:02:38;11.67;;;2.63;;
16063;SDS011;8136;53.172;8.256;2023-04-25T04:05:04;7.57;;;2.10;;
16063;SDS011;8136;53.172;8.256;2023-04-25T04:07:32;9.83;;;3.03;;
16063;SDS011;8136;53.172;8.256;2023-04-25T04:10:01;9.17;;;2.70;;
16063;SDS011;8136;53.172;8.256;2023-04-25T04:12:30;9.10;;;2.73;;
16063;SDS011;8136;53.172;8.256;2023-04-25T04:14:58;9.13;;;2.20;;
16063;SDS011;8136;53.172;8.256;2023-04-25T04:17:25;11.07;;;2.23;;
16063;SDS011;8136;53.172;8.256;2023-04-25T04:19:51;17.67;;;3.23;;
16063;SDS011;8136;53.172;8.256;2023-04-25T04:22:18;6.93;;;1.97;;
16063;SDS011;8136;53.172;8.256;2023-04-25T04:24:45;11.27;;;2.40;;
16063;SDS011;8136;53.172;8.256;2023-04-25T04:27:13;12.13;;;2.23;;
16063;SDS011;8136;53.172;8.256;2023-04-25T04:29:40;10.17;;;2.23;;
16063;SDS011;8136;53.172;8.256;2023-04-25T04:32:08;13.03;;;2.33;;
16063;SDS011;8136;53.172;8.256;2023-04-25T04:34:34;9.13;;;2.57;;
16063;SDS011;8136;53.172;8.256;2023-04-25T04:37:02;10.70;;;2.50;;
16063;SDS011;8136;53.172;8.256;2023-04-25T04:39:29;7.33;;;2.17;;
16063;SDS011;8136;53.172;8.256;2023-04-25T04:41:56;6.67;;;2.07;;
16063;SDS011;8136;53.172;8.256;2023-04-25T04:44:22;9.30;;;2.20;;
16063;SDS011;8136;53.172;8.256;2023-04-25T04:46:50;8.03;;;1.93;;
16063;SDS011;8136;53.172;8.256;2023-04-25T04:49:18;8.83;;;2.00;;
16063;SDS011;8136;53.172;8.256;2023-04-25T04:51:45;8.03;;;2.10;;
16063;SDS011;8136;53.172;8.256;2023-04-25T04:54:12;5.10;;;1.80;;
16063;SDS011;8136;53.172;8.256;2023-04-25T04:56:39;8.43;;;2.00;;
16063;SDS011;8136;53.172;8.256;2023-04-25T04:59:06;7.83;;;1.87;;
16063;SDS011;8136;53.172;8.256;2023-04-25T05:01:33;7.83;;;1.80;;
16063;SDS011;8136;53.172;8.256;2023-04-25T05:04:01;8.77;;;2.33;;
16063;SDS011;8136;53.172;8.256;2023-04-25T05:06:29;5.87;;;2.30;;
16063;SDS011;8136;53.172;8.256;2023-04-25T05:08:57;10.53;;;2.30;;
16063;SDS011;8136;53.172;8.256;2023-04-25T05:11:24;7.27;;;2.20;;
16063;SDS011;8136;53.172;8.256;2023-04-25T05:13:52;9.13;;;2.27;;
16063;SDS011;8136;53.172;8.256;2023-04-25T05:16:19;7.30;;;2.13;;
16063;SDS011;8136;53.172;8.256;2023-04-25T05:18:47;6.40;;;2.03;;
16063;SDS011;8136;53.172;8.256;2023-04-25T05:21:14;8.27;;;2.00;;
16063;SDS011;8136;53.172;8.256;2023-04-25T05:23:42;5.17;;;1.90;;
16063;SDS011;8136;53.172;8.256;2023-04-25T05:26:09;10.03;;;2.00;;
16063;SDS011;8136;53.172;8.256;2023-04-25T05:28:38;7.20;;;2.03;;
16063;SDS011;8136;53.172;8.256;2023-04-25T05:31:06;6.80;;;1.90;;
16063;SDS011;8136;53.172;8.256;2023-04-25T05:33:32;10.50;;;3.03;;
16063;SDS011;8136;53.172;8.256;2023-04-25T05:35:59;4.37;;;2.07;;
16063;SDS011;8136;53.172;8.256;2023-04-25T05:38:26;12.70;;;2.37;;
16063;SDS011;8136;53.172;8.256;2023-04-25T05:40:54;12.27;;;2.50;;
16063;SDS011;8136;53.172;8.256;2023-04-25T05:43:21;8.30;;;3.10;;
16063;SDS011;8136;53.172;8.256;2023-04-25T05:45:48;6.43;;;1.97;;
16063;SDS011;8136;53.172;8.256;2023-04-25T05:48:15;4.37;;;1.77;;
16063;SDS011;8136;53.172;8.256;2023-04-25T05:50:42;8.20;;;2.30;;
16063;SDS011;8136;53.172;8.256;2023-04-25T05:53:08;8.50;;;2.07;;
16063;SDS011;8136;53.172;8.256;2023-04-25T05:55:35;9.63;;;2.20;;
16063;SDS011;8136;53.172;8.256;2023-04-25T05:58:04;6.97;;;2.13;;
16063;SDS011;8136;53.172;8.256;2023-04-25T06:00:31;5.40;;;1.60;;
16063;SDS011;8136;53.172;8.256;2023-04-25T06:02:58;4.43;;;1.87;;
16063;SDS011;8136;53.172;8.256;2023-04-25T06:05:26;10.30;;;1.80;;
16063;SDS011;8136;53.172;8.256;2023-04-25T06:07:53;6.70;;;2.00;;
16063;SDS011;8136;53.172;8.256;2023-04-25T06:10:19;6.10;;;1.60;;
16063;SDS011;8136;53.172;8.256;2023-04-25T06:12:47;6.07;;;1.70;;
16063;SDS011;8136;53.172;8.256;2023-04-25T06:15:16;8.03;;;2.13;;
16063;SDS011;8136;53.172;8.256;2023-04-25T06:17:43;7.80;;;1.70;;
16063;SDS011;8136;53.172;8.256;2023-04-25T06:20:10;4.30;;;2.07;;
16063;SDS011;8136;53.172;8.256;2023-04-25T06:22:37;8.77;;;2.40;;
16063;SDS011;8136;53.172;8.256;2023-04-25T06:25:04;11.33;;;2.73;;
16063;SDS011;8136;53.172;8.256;2023-04-25T06:27:32;7.73;;;2.53;;
16063;SDS011;8136;53.172;8.256;2023-04-25T06:29:59;4.73;;;1.53;;
16063;SDS011;8136;53.172;8.256;2023-04-25T06:32:27;6.73;;;1.93;;
16063;SDS011;8136;53.172;8.256;2023-04-25T06:34:55;7.50;;;2.10;;
16063;SDS011;8136;53.172;8.256;2023-04-25T06:37:21;8.63;;;1.47;;
16063;SDS011;8136;53.172;8.256;2023-04-25T06:39:48;5.83;;;1.80;;
16063;SDS011;8136;53.172;8.256;2023-04-25T06:42:15;7.20;;;2.30;;
16063;SDS011;8136;53.172;8.256;2023-04-25T06:44:42;6.23;;;1.60;;
16063;SDS011;8136;53.172;8.256;2023-04-25T06:47:09;10.37;;;1.87;;
16063;SDS011;8136;53.172;8.256;2023-04-25T06:49:37;6.70;;;1.80;;
16063;SDS011;8136;53.172;8.256;2023-04-25T06:52:04;9.30;;;1.93;;
16063;SDS011;8136;53.172;8.256;2023-04-25T06:54:30;8.03;;;2.13;;
16063;SDS011;8136;53.172;8.256;2023-04-25T06:56:57;5.67;;;1.70;;
16063;SDS011;8136;53.172;8.256;2023-04-25T06:59:25;8.63;;;1.90;;
16063;SDS011;8136;53.172;8.256;2023-04-25T07:01:52;4.67;;;1.63;;
16063;SDS011;8136;53.172;8.256;2023-04-25T07:04:19;8.97;;;1.80;;
16063;SDS011;8136;53.172;8.256;2023-04-25T07:06:47;13.63;;;2.10;;
16063;SDS011;8136;53.172;8.256;2023-04-25T07:09:14;9.50;;;2.00;;
16063;SDS011;8136;53.172;8.256;2023-04-25T07:11:41;8.30;;;2.20;;
16063;SDS011;8136;53.172;8.256;2023-04-25T07:14:08;8.07;;;1.80;;
16063;SDS011;8136;53.172;8.256;2023-04-25T07:16:35;7.57;;;1.80;;
16063;SDS011;8136;53.172;8.256;2023-04-25T07:19:02;5.43;;;2.00;;
16063;SDS011;8136;53.172;8.256;2023-04-25T07:21:28;5.37;;;1.33;;
16063;SDS011;8136;53.172;8.256;2023-04-25T07:23:58;9.97;;;1.80;;
16063;SDS011;8136;53.172;8.256;2023-04-25T07:26:25;6.70;;;1.90;;
16063;SDS011;8136;53.172;8.256;2023-04-25T07:28:52;10.33;;;1.90;;
16063;SDS011;8136;53.172;8.256;2023-04-25T07:31:19;7.03;;;1.63;;
16063;SDS011;8136;53.172;8.256;2023-04-25T07:33:46;11.33;;;1.87;;
16063;SDS011;8136;53.172;8.256;2023-04-25T07:36:13;4.83;;;1.70;;
16063;SDS011;8136;53.172;8.256;2023-04-25T07:38:41;9.10;;;1.97;;
16063;SDS011;8136;53.172;8.256;2023-04-25T07:41:09;6.60;;;1.70;;
16063;SDS011;8136;53.172;8.256;2023-04-25T07:43:36;7.27;;;1.90;;
16063;SDS011;8136;53.172;8.256;2023-04-25T07:46:03;4.43;;;1.50;;
16063;SDS011;8136;53.172;8.256;2023-04-25T07:48:31;10.97;;;1.53;;
16063;SDS011;8136;53.172;8.256;2023-04-25T07:50:58;4.70;;;1.30;;
16063;SDS011;8136;53.172;8.256;2023-04-25T07:53:25;3.60;;;0.93;;
16063;SDS011;8136;53.172;8.256;2023-04-25T07:55:51;3.43;;;1.27;;
16063;SDS011;8136;53.172;8.256;2023-04-25T07:58:19;4.17;;;1.00;;
16063;SDS011;8136;53.172;8.256;2023-04-25T08:00:47;2.77;;;0.90;;
16063;SDS011;8136;53.172;8.256;2023-04-25T08:03:14;2.93;;;0.83;;
16063;SDS011;8136;53.172;8.256;2023-04-25T08:05:41;2.40;;;1.00;;
16063;SDS011;8136;53.172;8.256;2023-04-25T08:08:08;6.43;;;1.03;;
16063;SDS011;8136;53.172;8.256;2023-04-25T08:10:35;5.27;;;1.10;;
16063;SDS011;8136;53.172;8.256;2023-04-25T08:13:02;2.63;;;0.87;;
16063;SDS011;8136;53.172;8.256;2023-04-25T08:15:30;1.50;;;0.80;;
16063;SDS011;8136;53.172;8.256;2023-04-25T08:17:57;3.17;;;1.13;;
16063;SDS011;8136;53.172;8.256;2023-04-25T08:20:24;2.27;;;0.97;;
16063;SDS011;8136;53.172;8.256;2023-04-25T08:22:51;5.03;;;1.37;;
16063;SDS011;8136;53.172;8.256;2023-04-25T08:25:18;4.60;;;1.43;;
16063;SDS011;8136;53.172;8.256;2023-04-25T08:27:45;4.70;;;1.27;;
16063;SDS011;8136;53.172;8.256;2023-04-25T08:30:12;4.77;;;1.67;;
16063;SDS011;8136;53.172;8.256;2023-04-25T08:32:40;4.33;;;1.40;;
16063;SDS011;8136;53.172;8.256;2023-04-25T08:35:07;4.83;;;1.30;;
16063;SDS011;8136;53.172;8.256;2023-04-25T08:37:34;5.63;;;1.50;;
16063;SDS011;8136;53.172;8.256;2023-04-25T08:40:01;8.63;;;1.30;;
16063;SDS011;8136;53.172;8.256;2023-04-25T08:42:32;3.33;;;1.10;;
16063;SDS011;8136;53.172;8.256;2023-04-25T08:45:00;3.87;;;1.10;;
16063;SDS011;8136;53.172;8.256;2023-04-25T08:47:28;1.90;;;1.07;;
16063;SDS011;8136;53.172;8.256;2023-04-25T08:50:00;4.20;;;0.90;;
16063;SDS011;8136;53.172;8.256;2023-04-25T08:52:32;2.53;;;1.03;;
16063;SDS011;8136;53.172;8.256;2023-04-25T08:55:03;2.67;;;0.90;;
16063;SDS011;8136;53.172;8.256;2023-04-25T08:57:33;4.63;;;1.20;;
16063;SDS011;8136;53.172;8.256;2023-04-25T09:00:00;5.10;;;1.10;;
16063;SDS011;8136;53.172;8.256;2023-04-25T09:02:29;4.50;;;1.20;;
16063;SDS011;8136;53.172;8.256;2023-04-25T09:04:56;7.90;;;1.40;;
16063;SDS011;8136;53.172;8.256;2023-04-25T09:07:24;4.63;;;1.07;;
16063;SDS011;8136;53.172;8.256;2023-04-25T09:09:51;3.60;;;1.33;;
16063;SDS011;8136;53.172;8.256;2023-04-25T09:12:18;5.60;;;1.20;;
16063;SDS011;8136;53.172;8.256;2023-04-25T09:15:00;3.77;;;1.27;;
16063;SDS011;8136;53.172;8.256;2023-04-25T09:17:30;7.07;;;1.33;;
16063;SDS011;8136;53.172;8.256;2023-04-25T09:20:05;3.20;;;0.80;;
16063;SDS011;8136;53.172;8.256;2023-04-25T09:22:35;3.93;;;0.97;;
16063;SDS011;8136;53.172;8.256;2023-04-25T09:25:03;7.23;;;1.30;;
16063;SDS011;8136;53.172;8.256;2023-04-25T09:27:34;7.90;;;1.57;;
16063;SDS011;8136;53.172;8.256;2023-04-25T09:30:01;10.50;;;1.30;;
16063;SDS011;8136;53.172;8.256;2023-04-25T09:32:28;7.80;;;1.50;;
16063;SDS011;8136;53.172;8.256;2023-04-25T09:34:55;7.23;;;1.07;;
16063;SDS011;8136;53.172;8.256;2023-04-25T09:37:23;4.90;;;1.03;;
16063;SDS011;8136;53.172;8.256;2023-04-25T09:39:54;3.53;;;0.97;;
16063;SDS011;8136;53.172;8.256;2023-04-25T09:42:22;6.33;;;1.10;;
16063;SDS011;8136;53.172;8.256;2023-04-25T09:44:51;4.40;;;1.00;;
16063;SDS011;8136;53.172;8.256;2023-04-25T09:47:20;4.77;;;1.10;;
16063;SDS011;8136;53.172;8.256;2023-04-25T09:49:48;2.63;;;0.80;;
16063;SDS011;8136;53.172;8.256;2023-04-25T09:52:16;3.30;;;1.00;;
16063;SDS011;8136;53.172;8.256;2023-04-25T09:54:44;3.80;;;1.00;;
16063;SDS011;8136;53.172;8.256;2023-04-25T09:57:13;2.20;;;1.00;;
16063;SDS011;8136;53.172;8.256;2023-04-25T09:59:44;4.17;;;1.23;;
16063;SDS011;8136;53.172;8.256;2023-04-25T10:02:12;7.13;;;1.30;;
16063;SDS011;8136;53.172;8.256;2023-04-25T10:04:40;1.80;;;0.73;;
16063;SDS011;8136;53.172;8.256;2023-04-25T10:07:08;2.97;;;1.17;;
16063;SDS011;8136;53.172;8.256;2023-04-25T10:09:36;4.07;;;1.00;;
16063;SDS011;8136;53.172;8.256;2023-04-25T10:12:05;5.50;;;1.00;;
16063;SDS011;8136;53.172;8.256;2023-04-25T10:14:34;4.30;;;1.10;;
16063;SDS011;8136;53.172;8.256;2023-04-25T10:17:01;5.03;;;1.30;;
16063;SDS011;8136;53.172;8.256;2023-04-25T10:19:29;1.90;;;1.00;;
16063;SDS011;8136;53.172;8.256;2023-04-25T10:21:58;4.83;;;1.13;;
16063;SDS011;8136;53.172;8.256;2023-04-25T10:24:30;5.43;;;1.10;;
16063;SDS011;8136;53.172;8.256;2023-04-25T10:26:57;2.57;;;0.97;;
16063;SDS011;8136;53.172;8.256;2023-04-25T10:29:25;4.47;;;1.37;;
16063;SDS011;8136;53.172;8.256;2023-04-25T10:31:54;4.00;;;1.13;;
16063;SDS011;8136;53.172;8.256;2023-04-25T10:34:23;3.10;;;1.30;;
16063;SDS011;8136;53.172;8.256;2023-04-25T10:36:52;6.33;;;1.23;;
16063;SDS011;8136;53.172;8.256;2023-04-25T10:39:22;5.37;;;1.37;;
16063;SDS011;8136;53.172;8.256;2023-04-25T10:41:53;6.50;;;1.23;;
16063;SDS011;8136;53.172;8.256;2023-04-25T10:44:22;3.43;;;0.93;;
16063;SDS011;8136;53.172;8.256;2023-04-25T10:46:52;3.47;;;0.93;;
16063;SDS011;8136;53.172;8.256;2023-04-25T10:49:32;4.70;;;1.30;;
16063;SDS011;8136;53.172;8.256;2023-04-25T10:52:18;3.50;;;1.17;;
16063;SDS011;8136;53.172;8.256;2023-04-25T10:54:52;3.30;;;0.90;;
16063;SDS011;8136;53.172;8.256;2023-04-25T10:57:26;7.53;;;1.27;;
16063;SDS011;8136;53.172;8.256;2023-04-25T10:59:57;4.60;;;1.43;;
16063;SDS011;8136;53.172;8.256;2023-04-25T11:02:26;4.43;;;1.00;;
16063;SDS011;8136;53.172;8.256;2023-04-25T11:04:55;4.77;;;1.10;;
16063;SDS011;8136;53.172;8.256;2023-04-25T11:07:23;3.53;;;1.17;;
16063;SDS011;8136;53.172;8.256;2023-04-25T11:09:57;4.70;;;1.07;;
16063;SDS011;8136;53.172;8.256;2023-04-25T11:12:29;5.07;;;1.27;;
16063;SDS011;8136;53.172;8.256;2023-04-25T11:15:01;4.47;;;1.30;;
16063;SDS011;8136;53.172;8.256;2023-04-25T11:17:29;6.77;;;1.47;;
16063;SDS011;8136;53.172;8.256;2023-04-25T11:19:57;4.57;;;1.33;;
16063;SDS011;8136;53.172;8.256;2023-04-25T11:22:25;5.93;;;1.53;;
16063;SDS011;8136;53.172;8.256;2023-04-25T11:24:53;3.83;;;1.00;;
16063;SDS011;8136;53.172;8.256;2023-04-25T11:27:20;8.03;;;1.10;;
16063;SDS011;8136;53.172;8.256;2023-04-25T11:29:49;5.57;;;1.50;;
16063;SDS011;8136;53.172;8.256;2023-04-25T11:32:17;6.83;;;1.47;;
16063;SDS011;8136;53.172;8.256;2023-04-25T11:34:44;4.80;;;1.07;;
16063;SDS011;8136;53.172;8.256;2023-04-25T11:37:12;3.57;;;0.97;;
16063;SDS011;8136;53.172;8.256;2023-04-25T11:39:42;4.63;;;1.43;;
16063;SDS011;8136;53.172;8.256;2023-04-25T11:42:11;4.73;;;1.30;;
16063;SDS011;8136;53.172;8.256;2023-04-25T11:44:38;4.17;;;1.20;;
16063;SDS011;8136;53.172;8.256;2023-04-25T11:47:05;7.37;;;1.23;;
16063;SDS011;8136;53.172;8.256;2023-04-25T11:49:32;5.50;;;1.40;;
16063;SDS011;8136;53.172;8.256;2023-04-25T11:52:00;5.17;;;1.50;;
16063;SDS011;8136;53.172;8.256;2023-04-25T11:54:28;3.13;;;1.00;;
16063;SDS011;8136;53.172;8.256;2023-04-25T11:56:55;6.80;;;1.53;;
16063;SDS011;8136;53.172;8.256;2023-04-25T11:59:23;3.53;;;1.50;;
16063;SDS011;8136;53.172;8.256;2023-04-25T12:01:50;4.63;;;1.60;;
16063;SDS011;8136;53.172;8.256;2023-04-25T12:04:18;3.67;;;1.60;;
16063;SDS011;8136;53.172;8.256;2023-04-25T12:06:46;5.60;;;1.40;;
16063;SDS011;8136;53.172;8.256;2023-04-25T12:09:14;7.67;;;1.63;;
16063;SDS011;8136;53.172;8.256;2023-04-25T12:11:44;3.30;;;0.80;;
16063;SDS011;8136;53.172;8.256;2023-04-25T12:14:19;6.23;;;1.50;;
16063;SDS011;8136;53.172;8.256;2023-04-25T12:16:48;6.03;;;1.03;;
16063;SDS011;8136;53.172;8.256;2023-04-25T12:19:16;2.53;;;1.03;;
16063;SDS011;8136;53.172;8.256;2023-04-25T12:21:43;4.40;;;1.10;;
16063;SDS011;8136;53.172;8.256;2023-04-25T12:24:11;5.60;;;1.10;;
16063;SDS011;8136;53.172;8.256;2023-04-25T12:26:49;8.43;;;1.17;;
16063;SDS011;8136;53.172;8.256;2023-04-25T12:29:18;4.50;;;1.07;;
16063;SDS011;8136;53.172;8.256;2023-04-25T12:31:46;2.77;;;0.90;;
16063;SDS011;8136;53.172;8.256;2023-04-25T12:34:13;4.80;;;1.10;;
16063;SDS011;8136;53.172;8.256;2023-04-25T12:36:40;2.03;;;1.07;;
16063;SDS011;8136;53.172;8.256;2023-04-25T12:39:07;3.50;;;0.90;;
16063;SDS011;8136;53.172;8.256;2023-04-25T12:41:35;5.17;;;0.80;;
16063;SDS011;8136;53.172;8.256;2023-04-25T12:44:04;4.30;;;1.00;;
16063;SDS011;8136;53.172;8.256;2023-04-25T12:46:31;3.27;;;1.10;;
16063;SDS011;8136;53.172;8.256;2023-04-25T12:48:57;1.87;;;1.00;;
16063;SDS011;8136;53.172;8.256;2023-04-25T12:51:25;2.23;;;0.73;;
16063;SDS011;8136;53.172;8.256;2023-04-25T12:53:52;3.87;;;1.07;;
16063;SDS011;8136;53.172;8.256;2023-04-25T12:56:19;3.27;;;1.07;;
16063;SDS011;8136;53.172;8.256;2023-04-25T12:58:46;3.30;;;1.10;;
16063;SDS011;8136;53.172;8.256;2023-04-25T13:01:15;2.20;;;0.90;;
16063;SDS011;8136;53.172;8.256;2023-04-25T13:03:42;3.53;;;0.73;;
16063;SDS011;8136;53.172;8.256;2023-04-25T13:06:09;1.90;;;0.70;;
16063;SDS011;8136;53.172;8.256;2023-04-25T13:08:37;2.20;;;0.67;;
16063;SDS011;8136;53.172;8.256;2023-04-25T13:14:02;2.40;;;0.63;;
16063;SDS011;8136;53.172;8.256;2023-04-25T13:16:30;4.73;;;0.80;;
16063;SDS011;8136;53.172;8.256;2023-04-25T13:18:57;3.30;;;0.90;;
16063;SDS011;8136;53.172;8.256;2023-04-25T13:21:24;3.63;;;0.77;;
16063;SDS011;8136;53.172;8.256;2023-04-25T13:23:52;3.47;;;0.80;;
16063;SDS011;8136;53.172;8.256;2023-04-25T13:26:18;4.37;;;1.10;;
16063;SDS011;8136;53.172;8.256;2023-04-25T13:28:45;2.90;;;0.90;;
16063;SDS011;8136;53.172;8.256;2023-04-25T13:31:12;4.23;;;0.90;;
16063;SDS011;8136;53.172;8.256;2023-04-25T13:33:40;1.60;;;0.77;;
16063;SDS011;8136;53.172;8.256;2023-04-25T13:36:14;2.63;;;0.70;;
16063;SDS011;8136;53.172;8.256;2023-04-25T13:38:41;3.93;;;0.87;;
16063;SDS011;8136;53.172;8.256;2023-04-25T13:41:10;4.23;;;0.87;;
16063;SDS011;8136;53.172;8.256;2023-04-25T13:43:41;4.37;;;1.23;;
16063;SDS011;8136;53.172;8.256;2023-04-25T13:46:07;4.47;;;1.00;;
16063;SDS011;8136;53.172;8.256;2023-04-25T13:48:34;2.93;;;1.03;;
16063;SDS011;8136;53.172;8.256;2023-04-25T13:51:14;5.93;;;1.07;;
16063;SDS011;8136;53.172;8.256;2023-04-25T13:53:42;5.30;;;0.90;;
16063;SDS011;8136;53.172;8.256;2023-04-25T13:56:10;4.33;;;1.00;;
16063;SDS011;8136;53.172;8.256;2023-04-25T13:58:37;6.03;;;0.93;;
16063;SDS011;8136;53.172;8.256;2023-04-25T14:01:04;2.80;;;0.80;;
16063;SDS011;8136;53.172;8.256;2023-04-25T14:03:31;1.97;;;0.70;;
16063;SDS011;8136;53.172;8.256;2023-04-25T14:06:00;2.63;;;0.73;;
16063;SDS011;8136;53.172;8.256;2023-04-25T14:08:28;1.80;;;0.80;;
16063;SDS011;8136;53.172;8.256;2023-04-25T14:10:55;4.00;;;1.00;;
16063;SDS011;8136;53.172;8.256;2023-04-25T14:13:22;1.60;;;0.80;;
16063;SDS011;8136;53.172;8.256;2023-04-25T14:15:49;5.40;;;1.30;;
16063;SDS011;8136;53.172;8.256;2023-04-25T14:18:17;4.83;;;1.10;;
16063;SDS011;8136;53.172;8.256;2023-04-25T14:20:44;3.97;;;1.10;;
16063;SDS011;8136;53.172;8.256;2023-04-25T14:23:11;5.90;;;1.20;;
16063;SDS011;8136;53.172;8.256;2023-04-25T14:25:40;4.57;;;1.20;;
16063;SDS011;8136;53.172;8.256;2023-04-25T14:28:08;6.97;;;1.40;;
16063;SDS011;8136;53.172;8.256;2023-04-25T14:30:35;4.33;;;1.17;;
16063;SDS011;8136;53.172;8.256;2023-04-25T14:33:02;2.47;;;1.03;;
16063;SDS011;8136;53.172;8.256;2023-04-25T14:35:29;4.10;;;1.20;;
16063;SDS011;8136;53.172;8.256;2023-04-25T14:37:55;4.13;;;1.20;;
16063;SDS011;8136;53.172;8.256;2023-04-25T14:40:22;4.93;;;1.60;;
16063;SDS011;8136;53.172;8.256;2023-04-25T14:42:51;4.93;;;1.00;;
16063;SDS011;8136;53.172;8.256;2023-04-25T14:45:17;4.63;;;1.20;;
16063;SDS011;8136;53.172;8.256;2023-04-25T14:47:44;2.60;;;0.90;;
16063;SDS011;8136;53.172;8.256;2023-04-25T14:50:17;5.27;;;1.13;;
16063;SDS011;8136;53.172;8.256;2023-04-25T14:52:44;6.40;;;1.37;;
16063;SDS011;8136;53.172;8.256;2023-04-25T14:55:11;4.00;;;1.23;;
16063;SDS011;8136;53.172;8.256;2023-04-25T14:57:39;5.27;;;1.00;;
16063;SDS011;8136;53.172;8.256;2023-04-25T15:00:08;3.70;;;1.03;;
16063;SDS011;8136;53.172;8.256;2023-04-25T15:02:40;2.93;;;0.97;;
16063;SDS011;8136;53.172;8.256;2023-04-25T15:05:07;3.00;;;0.80;;